sensor_id;sensor_type;location;lat;lon;timestamp;P1;durP1;ratioP1;P2;durP2;ratioP2
72920;SDS011;61064;51.654;5.476;2022-11-12T00:00:14;21.70;;;10.20;;
72920;SDS011;61064;51.654;5.476;2022-11-12T00:02:40;20.67;;;10.57;;
72920;SDS011;61064;51.654;5.476;2022-11-12T00:05:05;22.40;;;11.13;;
72920;SDS011;61064;51.654;5.476;2022-11-12T00:07:38;19.53;;;9.73;;
72920;SDS011;61064;51.654;5.476;2022-11-12T00:10:04;20.63;;;10.88;;
72920;SDS011;61064;51.654;5.476;2022-11-12T00:12:30;20.10;;;10.80;;
72920;SDS011;61064;51.654;5.476;2022-11-12T00:14:56;22.27;;;11.10;;
72920;SDS011;61064;51.654;5.476;2022-11-12T00:17:21;19.65;;;10.63;;
72920;SDS011;61064;51.654;5.476;2022-11-12T00:19:47;20.70;;;11.57;;
72920;SDS011;61064;51.654;5.476;2022-11-12T00:22:13;19.88;;;11.38;;
72920;SDS011;61064;51.654;5.476;2022-11-12T00:24:38;23.07;;;12.57;;
72920;SDS011;61064;51.654;5.476;2022-11-12T00:27:04;22.30;;;12.60;;
72920;SDS011;61064;51.654;5.476;2022-11-12T00:29:29;24.27;;;13.13;;
72920;SDS011;61064;51.654;5.476;2022-11-12T00:31:55;24.83;;;14.57;;
72920;SDS011;61064;51.654;5.476;2022-11-12T00:34:20;29.40;;;17.27;;
72920;SDS011;61064;51.654;5.476;2022-11-12T00:36:46;26.50;;;15.07;;
72920;SDS011;61064;51.654;5.476;2022-11-12T00:39:11;26.77;;;14.90;;
72920;SDS011;61064;51.654;5.476;2022-11-12T00:41:37;28.97;;;16.03;;
72920;SDS011;61064;51.654;5.476;2022-11-12T00:44:02;24.67;;;14.00;;
72920;SDS011;61064;51.654;5.476;2022-11-12T00:46:28;26.42;;;14.75;;
72920;SDS011;61064;51.654;5.476;2022-11-12T00:48:53;27.13;;;14.87;;
72920;SDS011;61064;51.654;5.476;2022-11-12T00:51:19;23.53;;;14.10;;
72920;SDS011;61064;51.654;5.476;2022-11-12T00:53:47;24.37;;;13.47;;
72920;SDS011;61064;51.654;5.476;2022-11-12T00:56:14;24.35;;;13.40;;
72920;SDS011;61064;51.654;5.476;2022-11-12T00:58:40;23.85;;;12.88;;
72920;SDS011;61064;51.654;5.476;2022-11-12T01:01:07;24.05;;;12.65;;
72920;SDS011;61064;51.654;5.476;2022-11-12T01:03:35;23.80;;;12.40;;
72920;SDS011;61064;51.654;5.476;2022-11-12T01:06:02;22.33;;;11.80;;
72920;SDS011;61064;51.654;5.476;2022-11-12T01:08:29;20.52;;;11.50;;
72920;SDS011;61064;51.654;5.476;2022-11-12T01:11:04;21.48;;;11.52;;
72920;SDS011;61064;51.654;5.476;2022-11-12T01:13:30;24.33;;;11.52;;
72920;SDS011;61064;51.654;5.476;2022-11-12T01:15:56;21.00;;;11.27;;
72920;SDS011;61064;51.654;5.476;2022-11-12T01:18:21;22.87;;;11.97;;
72920;SDS011;61064;51.654;5.476;2022-11-12T01:20:47;21.00;;;11.13;;
72920;SDS011;61064;51.654;5.476;2022-11-12T01:23:12;21.77;;;10.98;;
72920;SDS011;61064;51.654;5.476;2022-11-12T01:25:38;21.50;;;11.23;;
72920;SDS011;61064;51.654;5.476;2022-11-12T01:28:03;19.60;;;10.97;;
72920;SDS011;61064;51.654;5.476;2022-11-12T01:30:29;20.88;;;11.15;;
72920;SDS011;61064;51.654;5.476;2022-11-12T01:32:55;18.40;;;10.43;;
72920;SDS011;61064;51.654;5.476;2022-11-12T01:35:20;20.33;;;10.65;;
72920;SDS011;61064;51.654;5.476;2022-11-12T01:37:46;17.70;;;10.00;;
72920;SDS011;61064;51.654;5.476;2022-11-12T01:40:14;20.02;;;9.80;;
72920;SDS011;61064;51.654;5.476;2022-11-12T01:42:40;18.50;;;9.97;;
72920;SDS011;61064;51.654;5.476;2022-11-12T01:45:14;21.13;;;10.32;;
72920;SDS011;61064;51.654;5.476;2022-11-12T01:47:40;20.37;;;10.60;;
72920;SDS011;61064;51.654;5.476;2022-11-12T01:50:12;18.52;;;9.90;;
72920;SDS011;61064;51.654;5.476;2022-11-12T01:52:42;17.02;;;9.85;;
72920;SDS011;61064;51.654;5.476;2022-11-12T01:55:31;19.33;;;9.43;;
72920;SDS011;61064;51.654;5.476;2022-11-12T02:00:32;19.17;;;10.37;;
72920;SDS011;61064;51.654;5.476;2022-11-12T02:02:58;16.90;;;9.70;;
72920;SDS011;61064;51.654;5.476;2022-11-12T02:05:27;18.10;;;9.70;;
72920;SDS011;61064;51.654;5.476;2022-11-12T02:07:54;22.30;;;10.60;;
72920;SDS011;61064;51.654;5.476;2022-11-12T02:10:24;21.38;;;10.65;;
72920;SDS011;61064;51.654;5.476;2022-11-12T02:12:50;19.60;;;10.13;;
72920;SDS011;61064;51.654;5.476;2022-11-12T02:15:36;17.27;;;10.50;;
72920;SDS011;61064;51.654;5.476;2022-11-12T02:18:02;17.70;;;9.60;;
72920;SDS011;61064;51.654;5.476;2022-11-12T02:20:31;18.23;;;9.00;;
72920;SDS011;61064;51.654;5.476;2022-11-12T02:22:58;16.70;;;9.52;;
72920;SDS011;61064;51.654;5.476;2022-11-12T02:25:24;16.07;;;9.50;;
72920;SDS011;61064;51.654;5.476;2022-11-12T02:27:52;18.35;;;9.05;;
72920;SDS011;61064;51.654;5.476;2022-11-12T02:30:33;19.50;;;9.95;;
72920;SDS011;61064;51.654;5.476;2022-11-12T02:32:59;18.17;;;9.95;;
72920;SDS011;61064;51.654;5.476;2022-11-12T02:35:25;18.10;;;9.67;;
72920;SDS011;61064;51.654;5.476;2022-11-12T02:37:50;19.73;;;9.38;;
72920;SDS011;61064;51.654;5.476;2022-11-12T02:40:16;18.77;;;9.57;;
72920;SDS011;61064;51.654;5.476;2022-11-12T02:42:41;15.87;;;9.13;;
72920;SDS011;61064;51.654;5.476;2022-11-12T02:45:07;17.45;;;9.02;;
72920;SDS011;61064;51.654;5.476;2022-11-12T02:47:33;15.57;;;8.77;;
72920;SDS011;61064;51.654;5.476;2022-11-12T02:49:58;16.38;;;9.00;;
72920;SDS011;61064;51.654;5.476;2022-11-12T02:52:27;17.23;;;8.93;;
72920;SDS011;61064;51.654;5.476;2022-11-12T02:54:52;18.80;;;8.65;;
72920;SDS011;61064;51.654;5.476;2022-11-12T02:57:25;15.75;;;8.75;;
72920;SDS011;61064;51.654;5.476;2022-11-12T02:59:53;16.03;;;8.37;;
72920;SDS011;61064;51.654;5.476;2022-11-12T03:02:18;14.93;;;8.43;;
72920;SDS011;61064;51.654;5.476;2022-11-12T03:04:44;19.50;;;8.87;;
72920;SDS011;61064;51.654;5.476;2022-11-12T03:07:12;15.50;;;8.47;;
72920;SDS011;61064;51.654;5.476;2022-11-12T03:09:37;17.95;;;8.98;;
72920;SDS011;61064;51.654;5.476;2022-11-12T03:12:03;17.60;;;9.30;;
72920;SDS011;61064;51.654;5.476;2022-11-12T03:14:28;16.95;;;8.80;;
72920;SDS011;61064;51.654;5.476;2022-11-12T03:16:54;15.30;;;8.83;;
72920;SDS011;61064;51.654;5.476;2022-11-12T03:19:19;17.53;;;8.60;;
72920;SDS011;61064;51.654;5.476;2022-11-12T03:21:46;14.45;;;8.32;;
72920;SDS011;61064;51.654;5.476;2022-11-12T03:24:14;15.50;;;8.82;;
72920;SDS011;61064;51.654;5.476;2022-11-12T03:26:39;17.13;;;8.77;;
72920;SDS011;61064;51.654;5.476;2022-11-12T03:29:05;15.90;;;8.77;;
72920;SDS011;61064;51.654;5.476;2022-11-12T03:31:30;16.00;;;9.15;;
72920;SDS011;61064;51.654;5.476;2022-11-12T03:33:56;17.17;;;8.60;;
72920;SDS011;61064;51.654;5.476;2022-11-12T03:36:21;17.07;;;8.57;;
72920;SDS011;61064;51.654;5.476;2022-11-12T03:38:47;16.20;;;8.53;;
72920;SDS011;61064;51.654;5.476;2022-11-12T03:41:12;16.05;;;9.10;;
72920;SDS011;61064;51.654;5.476;2022-11-12T03:43:37;16.97;;;8.13;;
72920;SDS011;61064;51.654;5.476;2022-11-12T03:46:03;14.30;;;8.17;;
72920;SDS011;61064;51.654;5.476;2022-11-12T03:48:28;16.50;;;8.50;;
72920;SDS011;61064;51.654;5.476;2022-11-12T03:50:57;15.35;;;8.20;;
72920;SDS011;61064;51.654;5.476;2022-11-12T03:53:24;18.27;;;8.83;;
72920;SDS011;61064;51.654;5.476;2022-11-12T03:55:50;16.48;;;8.30;;
72920;SDS011;61064;51.654;5.476;2022-11-12T03:58:15;16.87;;;7.60;;
72920;SDS011;61064;51.654;5.476;2022-11-12T04:00:41;14.15;;;8.23;;
72920;SDS011;61064;51.654;5.476;2022-11-12T04:03:06;16.10;;;8.20;;
72920;SDS011;61064;51.654;5.476;2022-11-12T04:05:32;17.27;;;8.23;;
72920;SDS011;61064;51.654;5.476;2022-11-12T04:08:17;17.00;;;8.50;;
72920;SDS011;61064;51.654;5.476;2022-11-12T04:13:30;16.08;;;7.95;;
72920;SDS011;61064;51.654;5.476;2022-11-12T04:15:57;16.40;;;8.10;;
72920;SDS011;61064;51.654;5.476;2022-11-12T04:18:44;16.38;;;8.02;;
72920;SDS011;61064;51.654;5.476;2022-11-12T04:24:33;15.93;;;7.22;;
72920;SDS011;61064;51.654;5.476;2022-11-12T04:29:56;14.07;;;7.20;;
72920;SDS011;61064;51.654;5.476;2022-11-12T04:32:50;14.70;;;7.53;;
72920;SDS011;61064;51.654;5.476;2022-11-12T04:35:18;15.27;;;7.45;;
72920;SDS011;61064;51.654;5.476;2022-11-12T04:37:45;16.10;;;7.78;;
72920;SDS011;61064;51.654;5.476;2022-11-12T04:42:59;15.77;;;7.20;;
72920;SDS011;61064;51.654;5.476;2022-11-12T04:45:45;15.13;;;7.50;;
72920;SDS011;61064;51.654;5.476;2022-11-12T04:48:13;18.83;;;7.80;;
72920;SDS011;61064;51.654;5.476;2022-11-12T04:50:38;14.67;;;7.00;;
72920;SDS011;61064;51.654;5.476;2022-11-12T04:53:05;14.38;;;6.95;;
72920;SDS011;61064;51.654;5.476;2022-11-12T04:55:33;14.52;;;7.40;;
72920;SDS011;61064;51.654;5.476;2022-11-12T04:57:58;14.47;;;7.30;;
72920;SDS011;61064;51.654;5.476;2022-11-12T05:00:24;18.33;;;7.30;;
72920;SDS011;61064;51.654;5.476;2022-11-12T05:02:50;14.73;;;7.47;;
72920;SDS011;61064;51.654;5.476;2022-11-12T05:05:18;18.02;;;7.88;;
72920;SDS011;61064;51.654;5.476;2022-11-12T05:07:44;18.87;;;7.90;;
72920;SDS011;61064;51.654;5.476;2022-11-12T05:10:12;16.05;;;8.50;;
72920;SDS011;61064;51.654;5.476;2022-11-12T05:12:38;15.63;;;8.00;;
72920;SDS011;61064;51.654;5.476;2022-11-12T05:15:06;16.17;;;7.15;;
72920;SDS011;61064;51.654;5.476;2022-11-12T05:17:32;14.90;;;7.82;;
72920;SDS011;61064;51.654;5.476;2022-11-12T05:19:57;17.43;;;7.50;;
72920;SDS011;61064;51.654;5.476;2022-11-12T05:22:22;15.03;;;7.70;;
72920;SDS011;61064;51.654;5.476;2022-11-12T05:24:48;15.33;;;7.97;;
72920;SDS011;61064;51.654;5.476;2022-11-12T05:27:14;13.60;;;7.17;;
72920;SDS011;61064;51.654;5.476;2022-11-12T05:29:42;15.82;;;7.30;;
72920;SDS011;61064;51.654;5.476;2022-11-12T05:32:10;14.67;;;6.97;;
72920;SDS011;61064;51.654;5.476;2022-11-12T05:34:36;14.25;;;7.55;;
72920;SDS011;61064;51.654;5.476;2022-11-12T05:37:03;15.90;;;7.25;;
72920;SDS011;61064;51.654;5.476;2022-11-12T05:39:30;18.20;;;7.40;;
72920;SDS011;61064;51.654;5.476;2022-11-12T05:41:55;15.55;;;7.97;;
72920;SDS011;61064;51.654;5.476;2022-11-12T05:44:21;15.47;;;8.00;;
72920;SDS011;61064;51.654;5.476;2022-11-12T05:46:46;16.90;;;7.77;;
72920;SDS011;61064;51.654;5.476;2022-11-12T05:49:12;16.35;;;8.30;;
72920;SDS011;61064;51.654;5.476;2022-11-12T05:51:37;17.57;;;7.90;;
72920;SDS011;61064;51.654;5.476;2022-11-12T05:54:03;14.87;;;7.20;;
72920;SDS011;61064;51.654;5.476;2022-11-12T05:56:29;19.13;;;7.97;;
72920;SDS011;61064;51.654;5.476;2022-11-12T05:58:54;18.50;;;7.20;;
72920;SDS011;61064;51.654;5.476;2022-11-12T06:01:21;13.38;;;7.13;;
72920;SDS011;61064;51.654;5.476;2022-11-12T06:03:46;17.05;;;7.65;;
72920;SDS011;61064;51.654;5.476;2022-11-12T06:06:12;16.13;;;7.53;;
72920;SDS011;61064;51.654;5.476;2022-11-12T06:08:37;15.43;;;7.43;;
72920;SDS011;61064;51.654;5.476;2022-11-12T06:11:03;15.82;;;7.70;;
72920;SDS011;61064;51.654;5.476;2022-11-12T06:13:28;18.13;;;7.80;;
72920;SDS011;61064;51.654;5.476;2022-11-12T06:15:54;18.13;;;7.68;;
72920;SDS011;61064;51.654;5.476;2022-11-12T06:18:21;15.70;;;7.23;;
72920;SDS011;61064;51.654;5.476;2022-11-12T06:20:47;17.30;;;7.05;;
72920;SDS011;61064;51.654;5.476;2022-11-12T06:23:31;28.10;;;13.27;;
72920;SDS011;61064;51.654;5.476;2022-11-12T06:25:56;21.07;;;8.67;;
72920;SDS011;61064;51.654;5.476;2022-11-12T06:28:22;19.27;;;8.40;;
72920;SDS011;61064;51.654;5.476;2022-11-12T06:30:47;16.63;;;7.50;;
72920;SDS011;61064;51.654;5.476;2022-11-12T06:33:13;15.63;;;7.03;;
72920;SDS011;61064;51.654;5.476;2022-11-12T06:35:38;13.98;;;7.35;;
72920;SDS011;61064;51.654;5.476;2022-11-12T06:38:04;15.17;;;6.67;;
72920;SDS011;61064;51.654;5.476;2022-11-12T06:40:29;14.37;;;7.20;;
72920;SDS011;61064;51.654;5.476;2022-11-12T06:42:56;13.33;;;6.53;;
72920;SDS011;61064;51.654;5.476;2022-11-12T06:45:22;17.08;;;7.10;;
72920;SDS011;61064;51.654;5.476;2022-11-12T06:47:48;13.40;;;7.07;;
72920;SDS011;61064;51.654;5.476;2022-11-12T06:50:14;15.40;;;7.53;;
72920;SDS011;61064;51.654;5.476;2022-11-12T06:52:39;16.57;;;6.43;;
72920;SDS011;61064;51.654;5.476;2022-11-12T06:55:05;17.40;;;7.00;;
72920;SDS011;61064;51.654;5.476;2022-11-12T06:57:32;14.85;;;7.28;;
72920;SDS011;61064;51.654;5.476;2022-11-12T06:59:57;13.33;;;6.67;;
72920;SDS011;61064;51.654;5.476;2022-11-12T07:02:23;14.13;;;6.77;;
72920;SDS011;61064;51.654;5.476;2022-11-12T07:04:48;19.40;;;6.63;;
72920;SDS011;61064;51.654;5.476;2022-11-12T07:07:13;14.03;;;7.10;;
72920;SDS011;61064;51.654;5.476;2022-11-12T07:09:39;15.33;;;7.37;;
72920;SDS011;61064;51.654;5.476;2022-11-12T07:12:04;14.10;;;7.13;;
72920;SDS011;61064;51.654;5.476;2022-11-12T07:14:30;15.10;;;7.43;;
72920;SDS011;61064;51.654;5.476;2022-11-12T07:16:55;15.80;;;7.32;;
72920;SDS011;61064;51.654;5.476;2022-11-12T07:19:20;17.23;;;7.00;;
72920;SDS011;61064;51.654;5.476;2022-11-12T07:21:46;16.07;;;7.10;;
72920;SDS011;61064;51.654;5.476;2022-11-12T07:24:11;14.53;;;6.87;;
72920;SDS011;61064;51.654;5.476;2022-11-12T07:26:36;16.57;;;6.63;;
72920;SDS011;61064;51.654;5.476;2022-11-12T07:29:02;14.97;;;7.30;;
72920;SDS011;61064;51.654;5.476;2022-11-12T07:31:27;12.17;;;6.80;;
72920;SDS011;61064;51.654;5.476;2022-11-12T07:33:53;14.80;;;6.67;;
72920;SDS011;61064;51.654;5.476;2022-11-12T07:36:19;14.23;;;6.70;;
72920;SDS011;61064;51.654;5.476;2022-11-12T07:38:45;13.38;;;6.40;;
72920;SDS011;61064;51.654;5.476;2022-11-12T07:41:12;13.00;;;6.32;;
72920;SDS011;61064;51.654;5.476;2022-11-12T07:43:39;14.43;;;7.13;;
72920;SDS011;61064;51.654;5.476;2022-11-12T07:46:16;14.57;;;7.03;;
72920;SDS011;61064;51.654;5.476;2022-11-12T07:48:51;16.17;;;7.15;;
72920;SDS011;61064;51.654;5.476;2022-11-12T07:51:25;15.05;;;6.65;;
72920;SDS011;61064;51.654;5.476;2022-11-12T07:53:52;16.27;;;7.35;;
72920;SDS011;61064;51.654;5.476;2022-11-12T07:56:20;16.43;;;6.63;;
72920;SDS011;61064;51.654;5.476;2022-11-12T07:58:46;15.43;;;7.60;;
72920;SDS011;61064;51.654;5.476;2022-11-12T08:03:55;17.45;;;7.72;;
72920;SDS011;61064;51.654;5.476;2022-11-12T08:06:21;15.88;;;8.00;;
72920;SDS011;61064;51.654;5.476;2022-11-12T08:08:46;15.10;;;7.30;;
72920;SDS011;61064;51.654;5.476;2022-11-12T08:11:12;14.97;;;8.00;;
72920;SDS011;61064;51.654;5.476;2022-11-12T08:13:37;15.67;;;8.07;;
72920;SDS011;61064;51.654;5.476;2022-11-12T08:16:02;17.63;;;7.70;;
72920;SDS011;61064;51.654;5.476;2022-11-12T08:18:28;15.15;;;7.30;;
72920;SDS011;61064;51.654;5.476;2022-11-12T08:20:59;15.40;;;8.13;;
72920;SDS011;61064;51.654;5.476;2022-11-12T08:23:28;18.75;;;7.95;;
72920;SDS011;61064;51.654;5.476;2022-11-12T08:25:57;17.90;;;7.33;;
72920;SDS011;61064;51.654;5.476;2022-11-12T08:28:27;15.77;;;7.68;;
72920;SDS011;61064;51.654;5.476;2022-11-12T08:30:54;15.93;;;7.73;;
72920;SDS011;61064;51.654;5.476;2022-11-12T08:33:20;17.70;;;8.75;;
72920;SDS011;61064;51.654;5.476;2022-11-12T08:35:46;18.88;;;8.07;;
72920;SDS011;61064;51.654;5.476;2022-11-12T08:38:12;18.98;;;8.18;;
72920;SDS011;61064;51.654;5.476;2022-11-12T08:40:38;18.73;;;8.43;;
72920;SDS011;61064;51.654;5.476;2022-11-12T08:43:08;17.20;;;9.07;;
72920;SDS011;61064;51.654;5.476;2022-11-12T08:45:35;17.20;;;9.23;;
72920;SDS011;61064;51.654;5.476;2022-11-12T08:48:02;21.27;;;9.70;;
72920;SDS011;61064;51.654;5.476;2022-11-12T08:50:30;21.88;;;9.82;;
72920;SDS011;61064;51.654;5.476;2022-11-12T08:53:03;20.17;;;9.47;;
72920;SDS011;61064;51.654;5.476;2022-11-12T08:55:30;18.67;;;9.07;;
72920;SDS011;61064;51.654;5.476;2022-11-12T08:57:59;19.33;;;8.82;;
72920;SDS011;61064;51.654;5.476;2022-11-12T09:00:29;17.77;;;9.02;;
72920;SDS011;61064;51.654;5.476;2022-11-12T09:02:58;20.55;;;8.80;;
72920;SDS011;61064;51.654;5.476;2022-11-12T09:05:24;19.60;;;9.48;;
72920;SDS011;61064;51.654;5.476;2022-11-12T09:07:55;21.53;;;8.87;;
72920;SDS011;61064;51.654;5.476;2022-11-12T09:10:31;17.88;;;8.85;;
72920;SDS011;61064;51.654;5.476;2022-11-12T09:12:57;17.97;;;9.13;;
72920;SDS011;61064;51.654;5.476;2022-11-12T09:15:23;24.48;;;9.30;;
72920;SDS011;61064;51.654;5.476;2022-11-12T09:17:56;17.63;;;8.17;;
72920;SDS011;61064;51.654;5.476;2022-11-12T09:20:23;18.23;;;9.02;;
72920;SDS011;61064;51.654;5.476;2022-11-12T09:22:49;19.35;;;8.70;;
72920;SDS011;61064;51.654;5.476;2022-11-12T09:25:15;15.95;;;8.25;;
72920;SDS011;61064;51.654;5.476;2022-11-12T09:27:41;16.23;;;7.97;;
72920;SDS011;61064;51.654;5.476;2022-11-12T09:30:06;15.97;;;7.90;;
72920;SDS011;61064;51.654;5.476;2022-11-12T09:32:33;16.13;;;7.70;;
72920;SDS011;61064;51.654;5.476;2022-11-12T09:34:58;15.37;;;8.57;;
72920;SDS011;61064;51.654;5.476;2022-11-12T09:37:24;17.40;;;8.70;;
72920;SDS011;61064;51.654;5.476;2022-11-12T09:39:49;15.27;;;8.33;;
72920;SDS011;61064;51.654;5.476;2022-11-12T09:42:15;21.98;;;8.48;;
72920;SDS011;61064;51.654;5.476;2022-11-12T09:44:45;16.63;;;8.17;;
72920;SDS011;61064;51.654;5.476;2022-11-12T09:47:23;17.80;;;8.73;;
72920;SDS011;61064;51.654;5.476;2022-11-12T09:52:27;14.88;;;8.32;;
72920;SDS011;61064;51.654;5.476;2022-11-12T09:54:58;15.70;;;7.85;;
72920;SDS011;61064;51.654;5.476;2022-11-12T09:57:30;13.77;;;7.67;;
72920;SDS011;61064;51.654;5.476;2022-11-12T09:59:56;14.10;;;7.47;;
72920;SDS011;61064;51.654;5.476;2022-11-12T10:02:34;13.95;;;7.95;;
72920;SDS011;61064;51.654;5.476;2022-11-12T10:10:52;17.50;;;8.50;;
72920;SDS011;61064;51.654;5.476;2022-11-12T10:16:31;15.57;;;8.90;;
72920;SDS011;61064;51.654;5.476;2022-11-12T10:19:24;12.57;;;8.10;;
72920;SDS011;61064;51.654;5.476;2022-11-12T10:24:52;14.87;;;8.40;;
72920;SDS011;61064;51.654;5.476;2022-11-12T10:27:23;17.13;;;9.40;;
72920;SDS011;61064;51.654;5.476;2022-11-12T10:29:57;14.82;;;8.20;;
72920;SDS011;61064;51.654;5.476;2022-11-12T10:32:27;15.32;;;8.18;;
72920;SDS011;61064;51.654;5.476;2022-11-12T10:34:53;16.27;;;9.57;;
72920;SDS011;61064;51.654;5.476;2022-11-12T10:37:23;13.90;;;8.00;;
72920;SDS011;61064;51.654;5.476;2022-11-12T10:39:53;17.42;;;7.85;;
72920;SDS011;61064;51.654;5.476;2022-11-12T10:42:20;15.20;;;7.87;;
72920;SDS011;61064;51.654;5.476;2022-11-12T10:44:46;13.63;;;7.82;;
72920;SDS011;61064;51.654;5.476;2022-11-12T10:47:20;12.57;;;7.93;;
72920;SDS011;61064;51.654;5.476;2022-11-12T10:50:03;14.47;;;7.90;;
72920;SDS011;61064;51.654;5.476;2022-11-12T10:52:35;14.35;;;7.70;;
72920;SDS011;61064;51.654;5.476;2022-11-12T10:55:14;15.32;;;8.38;;
72920;SDS011;61064;51.654;5.476;2022-11-12T10:57:42;13.65;;;7.75;;
72920;SDS011;61064;51.654;5.476;2022-11-12T11:02:36;14.05;;;8.07;;
72920;SDS011;61064;51.654;5.476;2022-11-12T11:06:18;16.67;;;8.00;;
72920;SDS011;61064;51.654;5.476;2022-11-12T11:08:32;12.75;;;8.02;;
72920;SDS011;61064;51.654;5.476;2022-11-12T11:13:44;14.70;;;7.57;;
72920;SDS011;61064;51.654;5.476;2022-11-12T11:16:12;15.50;;;7.55;;
72920;SDS011;61064;51.654;5.476;2022-11-12T11:18:40;14.48;;;7.90;;
72920;SDS011;61064;51.654;5.476;2022-11-12T11:35:45;18.50;;;7.53;;
72920;SDS011;61064;51.654;5.476;2022-11-12T11:40:42;14.73;;;7.13;;
72920;SDS011;61064;51.654;5.476;2022-11-12T11:43:19;13.82;;;6.78;;
72920;SDS011;61064;51.654;5.476;2022-11-12T11:45:58;11.75;;;6.70;;
72920;SDS011;61064;51.654;5.476;2022-11-12T11:56:48;12.25;;;6.30;;
72920;SDS011;61064;51.654;5.476;2022-11-12T12:04:39;11.48;;;6.40;;
72920;SDS011;61064;51.654;5.476;2022-11-12T12:12:35;11.57;;;6.57;;
72920;SDS011;61064;51.654;5.476;2022-11-12T12:15:24;12.97;;;6.57;;
72920;SDS011;61064;51.654;5.476;2022-11-12T12:20:40;11.52;;;6.22;;
72920;SDS011;61064;51.654;5.476;2022-11-12T12:23:30;13.30;;;6.60;;
72920;SDS011;61064;51.654;5.476;2022-11-12T12:26:01;14.27;;;6.63;;
72920;SDS011;61064;51.654;5.476;2022-11-12T12:28:39;13.47;;;6.53;;
72920;SDS011;61064;51.654;5.476;2022-11-12T12:31:19;12.80;;;6.57;;
72920;SDS011;61064;51.654;5.476;2022-11-12T12:33:50;13.20;;;6.70;;
72920;SDS011;61064;51.654;5.476;2022-11-12T12:36:22;12.93;;;6.45;;
72920;SDS011;61064;51.654;5.476;2022-11-12T12:38:50;11.40;;;6.57;;
72920;SDS011;61064;51.654;5.476;2022-11-12T12:41:26;14.17;;;6.60;;
72920;SDS011;61064;51.654;5.476;2022-11-12T12:44:01;12.77;;;6.75;;
72920;SDS011;61064;51.654;5.476;2022-11-12T12:46:29;12.32;;;7.10;;
72920;SDS011;61064;51.654;5.476;2022-11-12T12:49:04;12.18;;;6.30;;
72920;SDS011;61064;51.654;5.476;2022-11-12T12:51:34;12.10;;;6.05;;
72920;SDS011;61064;51.654;5.476;2022-11-12T12:53:59;10.87;;;6.20;;
72920;SDS011;61064;51.654;5.476;2022-11-12T12:58:56;13.40;;;6.60;;
72920;SDS011;61064;51.654;5.476;2022-11-12T13:01:28;12.30;;;6.00;;
72920;SDS011;61064;51.654;5.476;2022-11-12T13:03:59;13.00;;;6.27;;
72920;SDS011;61064;51.654;5.476;2022-11-12T13:06:37;10.80;;;6.50;;
72920;SDS011;61064;51.654;5.476;2022-11-12T13:16:56;11.27;;;6.50;;
72920;SDS011;61064;51.654;5.476;2022-11-12T13:19:32;13.73;;;6.90;;
72920;SDS011;61064;51.654;5.476;2022-11-12T13:38:01;11.50;;;6.90;;
72920;SDS011;61064;51.654;5.476;2022-11-12T13:43:32;13.50;;;7.73;;
72920;SDS011;61064;51.654;5.476;2022-11-12T13:49:01;13.23;;;7.45;;
72920;SDS011;61064;51.654;5.476;2022-11-12T13:56:53;12.13;;;7.43;;
72920;SDS011;61064;51.654;5.476;2022-11-12T13:59:20;12.10;;;7.03;;
72920;SDS011;61064;51.654;5.476;2022-11-12T14:01:49;12.32;;;6.82;;
72920;SDS011;61064;51.654;5.476;2022-11-12T14:04:15;12.40;;;7.30;;
72920;SDS011;61064;51.654;5.476;2022-11-12T14:06:56;14.50;;;7.28;;
72920;SDS011;61064;51.654;5.476;2022-11-12T14:20:25;12.98;;;7.20;;
72920;SDS011;61064;51.654;5.476;2022-11-12T14:23:02;14.32;;;8.13;;
72920;SDS011;61064;51.654;5.476;2022-11-12T14:25:33;12.93;;;7.23;;
72920;SDS011;61064;51.654;5.476;2022-11-12T14:27:58;13.63;;;8.15;;
72920;SDS011;61064;51.654;5.476;2022-11-12T14:30:25;14.10;;;8.77;;
72920;SDS011;61064;51.654;5.476;2022-11-12T14:32:57;14.82;;;8.73;;
72920;SDS011;61064;51.654;5.476;2022-11-12T14:35:26;17.35;;;8.50;;
72920;SDS011;61064;51.654;5.476;2022-11-12T14:37:56;12.77;;;8.27;;
72920;SDS011;61064;51.654;5.476;2022-11-12T14:40:27;15.07;;;7.68;;
72920;SDS011;61064;51.654;5.476;2022-11-12T14:42:54;13.63;;;8.77;;
72920;SDS011;61064;51.654;5.476;2022-11-12T14:45:21;13.35;;;9.35;;
72920;SDS011;61064;51.654;5.476;2022-11-12T14:47:48;15.83;;;9.73;;
72920;SDS011;61064;51.654;5.476;2022-11-12T14:50:29;13.23;;;8.60;;
72920;SDS011;61064;51.654;5.476;2022-11-12T14:53:01;15.82;;;9.35;;
72920;SDS011;61064;51.654;5.476;2022-11-12T14:55:33;15.50;;;9.35;;
72920;SDS011;61064;51.654;5.476;2022-11-12T14:58:01;14.90;;;9.65;;
72920;SDS011;61064;51.654;5.476;2022-11-12T15:02:56;16.13;;;10.00;;
72920;SDS011;61064;51.654;5.476;2022-11-12T15:05:23;17.17;;;10.50;;
72920;SDS011;61064;51.654;5.476;2022-11-12T15:08:04;16.00;;;9.98;;
72920;SDS011;61064;51.654;5.476;2022-11-12T15:10:38;16.80;;;10.27;;
72920;SDS011;61064;51.654;5.476;2022-11-12T15:13:06;15.80;;;9.60;;
72920;SDS011;61064;51.654;5.476;2022-11-12T15:15:36;18.70;;;10.75;;
72920;SDS011;61064;51.654;5.476;2022-11-12T15:18:17;17.02;;;10.80;;
72920;SDS011;61064;51.654;5.476;2022-11-12T15:20:45;18.60;;;10.45;;
72920;SDS011;61064;51.654;5.476;2022-11-12T15:23:25;17.67;;;10.73;;
72920;SDS011;61064;51.654;5.476;2022-11-12T15:25:57;18.00;;;10.87;;
72920;SDS011;61064;51.654;5.476;2022-11-12T15:28:24;21.35;;;11.80;;
72920;SDS011;61064;51.654;5.476;2022-11-12T15:31:01;19.03;;;11.97;;
72920;SDS011;61064;51.654;5.476;2022-11-12T15:33:30;18.83;;;12.90;;
72920;SDS011;61064;51.654;5.476;2022-11-12T15:35:56;20.03;;;13.37;;
72920;SDS011;61064;51.654;5.476;2022-11-12T15:38:28;18.67;;;12.60;;
72920;SDS011;61064;51.654;5.476;2022-11-12T15:41:00;19.25;;;12.65;;
72920;SDS011;61064;51.654;5.476;2022-11-12T15:43:34;20.33;;;12.35;;
72920;SDS011;61064;51.654;5.476;2022-11-12T15:46:00;20.38;;;12.18;;
72920;SDS011;61064;51.654;5.476;2022-11-12T15:48:26;20.00;;;11.27;;
72920;SDS011;61064;51.654;5.476;2022-11-12T15:50:51;20.77;;;12.32;;
72920;SDS011;61064;51.654;5.476;2022-11-12T15:53:17;21.23;;;12.30;;
72920;SDS011;61064;51.654;5.476;2022-11-12T15:55:43;25.55;;;14.80;;
72920;SDS011;61064;51.654;5.476;2022-11-12T15:58:14;30.97;;;16.33;;
72920;SDS011;61064;51.654;5.476;2022-11-12T16:00:42;23.35;;;14.13;;
72920;SDS011;61064;51.654;5.476;2022-11-12T16:05:38;21.77;;;13.07;;
72920;SDS011;61064;51.654;5.476;2022-11-12T16:08:03;22.07;;;13.10;;
72920;SDS011;61064;51.654;5.476;2022-11-12T16:10:29;21.77;;;12.60;;
72920;SDS011;61064;51.654;5.476;2022-11-12T16:12:56;18.13;;;11.80;;
72920;SDS011;61064;51.654;5.476;2022-11-12T16:15:23;19.33;;;11.55;;
72920;SDS011;61064;51.654;5.476;2022-11-12T16:17:52;19.67;;;12.23;;
72920;SDS011;61064;51.654;5.476;2022-11-12T16:20:21;23.08;;;12.68;;
72920;SDS011;61064;51.654;5.476;2022-11-12T16:22:51;20.30;;;12.07;;
72920;SDS011;61064;51.654;5.476;2022-11-12T16:25:17;19.65;;;12.63;;
72920;SDS011;61064;51.654;5.476;2022-11-12T16:27:43;17.90;;;12.30;;
72920;SDS011;61064;51.654;5.476;2022-11-12T16:30:19;21.67;;;12.68;;
72920;SDS011;61064;51.654;5.476;2022-11-12T16:32:49;20.73;;;12.77;;
72920;SDS011;61064;51.654;5.476;2022-11-12T16:35:15;19.83;;;13.20;;
72920;SDS011;61064;51.654;5.476;2022-11-12T16:37:41;21.97;;;14.03;;
72920;SDS011;61064;51.654;5.476;2022-11-12T16:40:10;20.83;;;13.48;;
72920;SDS011;61064;51.654;5.476;2022-11-12T16:42:39;22.38;;;12.80;;
72920;SDS011;61064;51.654;5.476;2022-11-12T16:45:22;20.05;;;11.80;;
72920;SDS011;61064;51.654;5.476;2022-11-12T16:47:53;19.77;;;11.40;;